SWA636 KCRP-KHOU
Flight info
| Callsign | SWA636 |
|---|---|
| Flight time | 0h 36m |
| Altitude | 25000 |
| Route | PSX BELLR |
| Aircraft | B738/M-SDE3/STD |
Departure
| Time | 2026-04-28 13:45 |
|---|---|
| Airport | Corpus Christi International Airport (KCRP) |
Arrival
| Time | 2026-04-28 14:22 |
|---|---|
| Airport | William P. Hobby Airport (KHOU) |
| Time | Latitude | Longitude | Altitude | Speed | Heading |
|---|---|---|---|---|---|
| 2026-04-28 13:31 | 27.77309 | -97.50179 | 44 ft | 0 kts | 315° |
| 2026-04-28 13:39 | 27.77306 | -97.50175 | 45 ft | 2 kts | 315° |
| 2026-04-28 13:39 | 27.77281 | -97.50147 | 44 ft | 6 kts | 314° |
| 2026-04-28 13:39 | 27.77260 | -97.50122 | 44 ft | 0 kts | 314° |
| 2026-04-28 13:41 | 27.77266 | -97.50134 | 44 ft | 4 kts | 284° |
| 2026-04-28 13:42 | 27.77262 | -97.50194 | 45 ft | 10 kts | 270° |
| 2026-04-28 13:42 | 27.77262 | -97.50304 | 44 ft | 16 kts | 266° |
| 2026-04-28 13:42 | 27.77204 | -97.50406 | 44 ft | 15 kts | 223° |
| 2026-04-28 13:42 | 27.77175 | -97.50501 | 44 ft | 13 kts | 305° |
| 2026-04-28 13:43 | 27.77241 | -97.50573 | 45 ft | 12 kts | 319° |
| 2026-04-28 13:43 | 27.77325 | -97.50661 | 44 ft | 21 kts | 316° |
| 2026-04-28 13:43 | 27.77436 | -97.50784 | 47 ft | 17 kts | 307° |
| 2026-04-28 13:43 | 27.77395 | -97.50863 | 46 ft | 3 kts | 174° |
| 2026-04-28 13:44 | 27.77388 | -97.50862 | 46 ft | 4 kts | 173° |
| 2026-04-28 13:44 | 27.77318 | -97.50854 | 45 ft | 12 kts | 186° |
| 2026-04-28 13:45 | 27.77214 | -97.50806 | 45 ft | 38 kts | 135° |
| 2026-04-28 13:45 | 27.76754 | -97.50307 | 45 ft | 140 kts | 135° |
| 2026-04-28 13:45 | 27.75999 | -97.49435 | 832 ft | 167 kts | 133° |
| 2026-04-28 13:45 | 27.75183 | -97.48429 | 1728 ft | 191 kts | 134° |
| 2026-04-28 13:46 | 27.74214 | -97.47223 | 2425 ft | 232 kts | 133° |
| 2026-04-28 13:46 | 27.73073 | -97.45763 | 3229 ft | 259 kts | 131° |
| 2026-04-28 13:46 | 27.72167 | -97.43986 | 3875 ft | 267 kts | 109° |
| 2026-04-28 13:46 | 27.71938 | -97.41930 | 4505 ft | 271 kts | 87° |
| 2026-04-28 13:47 | 27.72427 | -97.39867 | 5146 ft | 274 kts | 64° |
| 2026-04-28 13:47 | 27.73563 | -97.38166 | 5790 ft | 277 kts | 45° |
| 2026-04-28 13:47 | 27.74941 | -97.36623 | 6462 ft | 280 kts | 44° |
| 2026-04-28 13:47 | 27.76312 | -97.35087 | 7103 ft | 283 kts | 44° |
| 2026-04-28 13:48 | 27.77700 | -97.33523 | 7747 ft | 285 kts | 45° |
| 2026-04-28 13:48 | 27.79110 | -97.31924 | 8396 ft | 288 kts | 45° |
| 2026-04-28 13:48 | 27.80522 | -97.30312 | 9036 ft | 290 kts | 44° |
| 2026-04-28 13:48 | 27.81927 | -97.28700 | 9661 ft | 292 kts | 44° |
| 2026-04-28 13:49 | 27.83346 | -97.27065 | 10284 ft | 295 kts | 45° |
| 2026-04-28 13:49 | 27.84960 | -97.25677 | 10895 ft | 295 kts | 25° |
| 2026-04-28 13:49 | 27.86915 | -97.24966 | 11573 ft | 297 kts | 13° |
| 2026-04-28 13:49 | 27.88907 | -97.24382 | 12218 ft | 299 kts | 13° |
| 2026-04-28 13:50 | 27.90940 | -97.23782 | 12909 ft | 316 kts | 13° |
| 2026-04-28 13:50 | 27.93134 | -97.23132 | 13672 ft | 335 kts | 13° |
| 2026-04-28 13:50 | 27.95412 | -97.22460 | 14426 ft | 352 kts | 13° |
| 2026-04-28 13:50 | 27.97843 | -97.21744 | 15192 ft | 368 kts | 12° |
| 2026-04-28 13:51 | 28.00342 | -97.21012 | 15876 ft | 384 kts | 12° |
| 2026-04-28 13:51 | 28.02958 | -97.20243 | 16475 ft | 388 kts | 12° |
| 2026-04-28 13:51 | 28.05459 | -97.19222 | 16916 ft | 390 kts | 23° |
| 2026-04-28 13:51 | 28.07758 | -97.17550 | 17375 ft | 393 kts | 36° |
| 2026-04-28 13:52 | 28.09674 | -97.15335 | 17827 ft | 397 kts | 49° |
| 2026-04-28 13:52 | 28.11087 | -97.12695 | 18298 ft | 400 kts | 60° |
| 2026-04-28 13:52 | 28.12689 | -97.10120 | 18795 ft | 396 kts | 43° |
| 2026-04-28 13:52 | 28.14681 | -97.08037 | 19330 ft | 396 kts | 39° |
| 2026-04-28 13:53 | 28.16695 | -97.05886 | 19806 ft | 397 kts | 40° |
| 2026-04-28 13:53 | 28.18650 | -97.03717 | 20292 ft | 397 kts | 40° |
| 2026-04-28 13:53 | 28.20605 | -97.01522 | 20725 ft | 398 kts | 40° |
| 2026-04-28 13:53 | 28.22601 | -96.99279 | 21193 ft | 412 kts | 40° |
| 2026-04-28 13:54 | 28.24672 | -96.96928 | 21661 ft | 424 kts | 39° |
| 2026-04-28 13:54 | 28.26754 | -96.94598 | 22067 ft | 425 kts | 40° |
| 2026-04-28 13:54 | 28.28848 | -96.92194 | 22514 ft | 424 kts | 40° |
| 2026-04-28 13:54 | 28.30939 | -96.89806 | 22960 ft | 423 kts | 40° |
| 2026-04-28 13:55 | 28.33032 | -96.87425 | 23409 ft | 422 kts | 40° |
| 2026-04-28 13:55 | 28.35107 | -96.85067 | 23855 ft | 422 kts | 39° |
| 2026-04-28 13:55 | 28.37174 | -96.82716 | 24301 ft | 421 kts | 39° |
| 2026-04-28 13:55 | 28.39125 | -96.80389 | 24716 ft | 423 kts | 43° |
| 2026-04-28 13:56 | 28.41053 | -96.77842 | 25175 ft | 423 kts | 43° |
| 2026-04-28 13:56 | 28.42963 | -96.75307 | 25600 ft | 423 kts | 43° |
| 2026-04-28 13:56 | 28.44875 | -96.72769 | 25993 ft | 422 kts | 42° |
| 2026-04-28 13:56 | 28.46800 | -96.70212 | 26396 ft | 422 kts | 43° |
| 2026-04-28 13:57 | 28.48711 | -96.67667 | 26798 ft | 421 kts | 43° |
| 2026-04-28 13:57 | 28.50620 | -96.65128 | 27201 ft | 421 kts | 42° |
| 2026-04-28 13:57 | 28.52513 | -96.62607 | 27601 ft | 420 kts | 42° |
| 2026-04-28 13:57 | 28.54419 | -96.60068 | 28006 ft | 419 kts | 42° |
| 2026-04-28 13:58 | 28.56320 | -96.57536 | 28410 ft | 418 kts | 41° |
| 2026-04-28 13:58 | 28.58207 | -96.55022 | 28792 ft | 419 kts | 41° |
| 2026-04-28 13:58 | 28.60081 | -96.52525 | 28946 ft | 421 kts | 41° |
| 2026-04-28 13:58 | 28.62005 | -96.49973 | 28938 ft | 419 kts | 40° |
| 2026-04-28 13:59 | 28.65825 | -96.44910 | 28946 ft | 417 kts | 41° |
| 2026-04-28 13:59 | 28.69594 | -96.39818 | 28984 ft | 418 kts | 41° |
| 2026-04-28 14:00 | 28.73371 | -96.34759 | 28991 ft | 418 kts | 42° |
| 2026-04-28 14:00 | 28.77404 | -96.30045 | 28974 ft | 406 kts | 29° |
| 2026-04-28 14:01 | 28.81942 | -96.26288 | 28987 ft | 403 kts | 26° |
| 2026-04-28 14:01 | 28.86518 | -96.22640 | 28984 ft | 403 kts | 26° |
| 2026-04-28 14:02 | 28.91118 | -96.18982 | 28981 ft | 403 kts | 26° |
| 2026-04-28 14:02 | 28.95701 | -96.15334 | 28980 ft | 403 kts | 26° |
| 2026-04-28 14:03 | 29.00293 | -96.11669 | 28978 ft | 401 kts | 25° |
| 2026-04-28 14:03 | 29.04746 | -96.07886 | 28951 ft | 390 kts | 28° |
| 2026-04-28 14:04 | 29.06857 | -96.05985 | 28444 ft | 388 kts | 28° |
| 2026-04-28 14:04 | 29.08944 | -96.04099 | 27880 ft | 387 kts | 28° |
| 2026-04-28 14:04 | 29.11037 | -96.02197 | 27349 ft | 384 kts | 28° |
| 2026-04-28 14:04 | 29.13125 | -96.00294 | 26851 ft | 381 kts | 29° |
| 2026-04-28 14:05 | 29.14971 | -95.98109 | 26273 ft | 395 kts | 44° |
| 2026-04-28 14:05 | 29.16386 | -95.95364 | 25711 ft | 406 kts | 58° |
| 2026-04-28 14:05 | 29.17418 | -95.92355 | 25174 ft | 405 kts | 61° |
| 2026-04-28 14:05 | 29.18414 | -95.89317 | 24641 ft | 401 kts | 61° |
| 2026-04-28 14:06 | 29.19396 | -95.86340 | 24133 ft | 397 kts | 62° |
| 2026-04-28 14:06 | 29.20389 | -95.83424 | 23638 ft | 393 kts | 62° |
| 2026-04-28 14:06 | 29.21396 | -95.80489 | 23132 ft | 390 kts | 62° |
| 2026-04-28 14:06 | 29.22384 | -95.77634 | 22636 ft | 386 kts | 62° |
| 2026-04-28 14:07 | 29.23381 | -95.74775 | 22135 ft | 383 kts | 62° |
| 2026-04-28 14:07 | 29.24617 | -95.72133 | 21635 ft | 371 kts | 49° |
| 2026-04-28 14:07 | 29.26062 | -95.69714 | 21138 ft | 367 kts | 46° |
| 2026-04-28 14:07 | 29.27680 | -95.67542 | 20662 ft | 360 kts | 41° |
| 2026-04-28 14:08 | 29.29319 | -95.65413 | 20161 ft | 357 kts | 41° |
| 2026-04-28 14:08 | 29.30966 | -95.63306 | 19648 ft | 353 kts | 40° |
| 2026-04-28 14:08 | 29.32593 | -95.61218 | 19107 ft | 350 kts | 41° |
| 2026-04-28 14:08 | 29.34223 | -95.59137 | 18609 ft | 348 kts | 41° |
| 2026-04-28 14:09 | 29.35847 | -95.57109 | 18112 ft | 345 kts | 41° |
| 2026-04-28 14:09 | 29.37488 | -95.55096 | 17595 ft | 343 kts | 41° |
| 2026-04-28 14:09 | 29.39138 | -95.53064 | 17089 ft | 340 kts | 41° |
| 2026-04-28 14:09 | 29.40720 | -95.51147 | 16599 ft | 338 kts | 41° |
| 2026-04-28 14:10 | 29.42338 | -95.49208 | 16101 ft | 336 kts | 41° |
| 2026-04-28 14:10 | 29.43985 | -95.47254 | 15593 ft | 334 kts | 41° |
| 2026-04-28 14:10 | 29.45614 | -95.45346 | 15090 ft | 332 kts | 41° |
| 2026-04-28 14:10 | 29.47235 | -95.43469 | 14588 ft | 330 kts | 41° |
| 2026-04-28 14:11 | 29.48866 | -95.41597 | 14082 ft | 328 kts | 41° |
| 2026-04-28 14:11 | 29.50491 | -95.39757 | 13578 ft | 326 kts | 41° |
| 2026-04-28 14:11 | 29.52131 | -95.37986 | 13073 ft | 323 kts | 34° |
| 2026-04-28 14:11 | 29.54088 | -95.36854 | 12600 ft | 316 kts | 13° |
| 2026-04-28 14:12 | 29.56244 | -95.36620 | 12119 ft | 310 kts | 352° |
| 2026-04-28 14:12 | 29.58256 | -95.37292 | 11593 ft | 297 kts | 332° |
| 2026-04-28 14:12 | 29.60041 | -95.38330 | 11018 ft | 282 kts | 330° |
| 2026-04-28 14:12 | 29.61756 | -95.39329 | 10426 ft | 270 kts | 330° |
| 2026-04-28 14:13 | 29.63362 | -95.40353 | 9844 ft | 260 kts | 322° |
| 2026-04-28 14:13 | 29.64764 | -95.41544 | 9305 ft | 253 kts | 320° |
| 2026-04-28 14:13 | 29.66173 | -95.42740 | 8750 ft | 247 kts | 321° |
| 2026-04-28 14:13 | 29.67536 | -95.43897 | 8206 ft | 242 kts | 321° |
| 2026-04-28 14:14 | 29.68881 | -95.45034 | 7671 ft | 238 kts | 321° |
| 2026-04-28 14:14 | 29.70201 | -95.46147 | 7138 ft | 235 kts | 321° |
| 2026-04-28 14:14 | 29.71512 | -95.47250 | 6612 ft | 233 kts | 321° |
| 2026-04-28 14:14 | 29.72814 | -95.48345 | 6084 ft | 231 kts | 321° |
| 2026-04-28 14:15 | 29.74216 | -95.49165 | 5536 ft | 233 kts | 343° |
| 2026-04-28 14:15 | 29.75835 | -95.49290 | 5007 ft | 233 kts | 6° |
| 2026-04-28 14:15 | 29.77375 | -95.48762 | 4501 ft | 231 kts | 21° |
| 2026-04-28 14:15 | 29.78851 | -95.48083 | 4027 ft | 228 kts | 21° |
| 2026-04-28 14:16 | 29.80295 | -95.47421 | 3580 ft | 225 kts | 21° |
| 2026-04-28 14:16 | 29.81611 | -95.46513 | 3061 ft | 223 kts | 52° |
| 2026-04-28 14:16 | 29.82129 | -95.44907 | 2571 ft | 215 kts | 93° |
| 2026-04-28 14:16 | 29.81609 | -95.43372 | 2195 ft | 208 kts | 135° |
| 2026-04-28 14:17 | 29.80342 | -95.42680 | 2053 ft | 200 kts | 170° |
| 2026-04-28 14:17 | 29.78993 | -95.42463 | 2003 ft | 192 kts | 172° |
| 2026-04-28 14:17 | 29.77702 | -95.42271 | 1996 ft | 181 kts | 172° |
| 2026-04-28 14:17 | 29.76504 | -95.42082 | 1994 ft | 171 kts | 167° |
| 2026-04-28 14:18 | 29.75544 | -95.41325 | 1992 ft | 171 kts | 127° |
| 2026-04-28 14:18 | 29.74834 | -95.40189 | 1992 ft | 176 kts | 127° |
| 2026-04-28 14:18 | 29.74049 | -95.39133 | 1977 ft | 171 kts | 136° |
| 2026-04-28 14:18 | 29.73231 | -95.38190 | 1987 ft | 159 kts | 135° |
| 2026-04-28 14:19 | 29.72494 | -95.37323 | 1958 ft | 144 kts | 135° |
| 2026-04-28 14:19 | 29.71812 | -95.36519 | 1962 ft | 140 kts | 135° |
| 2026-04-28 14:19 | 29.71111 | -95.35690 | 1793 ft | 146 kts | 135° |
| 2026-04-28 14:19 | 29.70400 | -95.34842 | 1605 ft | 147 kts | 137° |
| 2026-04-28 14:20 | 29.69690 | -95.34005 | 1416 ft | 146 kts | 137° |
| 2026-04-28 14:20 | 29.68999 | -95.33187 | 1243 ft | 143 kts | 137° |
| 2026-04-28 14:20 | 29.68301 | -95.32359 | 1045 ft | 143 kts | 136° |
| 2026-04-28 14:20 | 29.67614 | -95.31543 | 851 ft | 143 kts | 136° |
| 2026-04-28 14:21 | 29.66925 | -95.30724 | 657 ft | 142 kts | 136° |
| 2026-04-28 14:21 | 29.66242 | -95.29913 | 466 ft | 141 kts | 136° |
| 2026-04-28 14:21 | 29.65567 | -95.29112 | 279 ft | 141 kts | 136° |
| 2026-04-28 14:21 | 29.64892 | -95.28303 | 85 ft | 136 kts | 136° |
| 2026-04-28 14:22 | 29.64294 | -95.27599 | 52 ft | 81 kts | 136° |
| 2026-04-28 14:22 | 29.64086 | -95.27351 | 51 ft | 33 kts | 135° |
| 2026-04-28 14:22 | 29.63950 | -95.27168 | 51 ft | 27 kts | 114° |
| 2026-04-28 14:22 | 29.63924 | -95.26981 | 51 ft | 9 kts | 78° |
| 2026-04-28 14:23 | 29.63966 | -95.26978 | 51 ft | 9 kts | 319° |
| 2026-04-28 14:23 | 29.64040 | -95.27069 | 51 ft | 20 kts | 314° |
| 2026-04-28 14:23 | 29.64132 | -95.27175 | 51 ft | 17 kts | 314° |
| 2026-04-28 14:23 | 29.64214 | -95.27274 | 51 ft | 15 kts | 314° |
| 2026-04-28 14:24 | 29.64279 | -95.27352 | 51 ft | 12 kts | 314° |
| 2026-04-28 14:24 | 29.64355 | -95.27442 | 51 ft | 16 kts | 314° |
| 2026-04-28 14:24 | 29.64430 | -95.27531 | 51 ft | 14 kts | 315° |
| 2026-04-28 14:24 | 29.64493 | -95.27600 | 51 ft | 10 kts | 330° |
| 2026-04-28 14:25 | 29.64558 | -95.27581 | 51 ft | 12 kts | 40° |
| 2026-04-28 14:25 | 29.64639 | -95.27515 | 51 ft | 14 kts | 15° |
| 2026-04-28 14:25 | 29.64744 | -95.27517 | 51 ft | 16 kts | 357° |
| 2026-04-28 14:25 | 29.64852 | -95.27524 | 51 ft | 19 kts | 0° |
| 2026-04-28 14:26 | 29.64994 | -95.27522 | 51 ft | 20 kts | 359° |
| 2026-04-28 14:26 | 29.65106 | -95.27480 | 51 ft | 16 kts | 50° |
| 2026-04-28 14:26 | 29.65188 | -95.27449 | 51 ft | 7 kts | 348° |
| 2026-04-28 14:26 | 29.65204 | -95.27454 | 51 ft | 0 kts | 342° |
| 2026-04-28 14:27 | 29.65205 | -95.27455 | 51 ft | 0 kts | 342° |
| 2026-04-28 14:27 | 29.65206 | -95.27455 | 51 ft | 0 kts | 342° |